Time;durP1;ratioP1;P1;durP2;ratioP2;P2;SDS_P1;SDS_P2;PMS_P1;PMS_P2;Temp;Humidity;BMP_temperature;BMP_pressure;BME280_temperature;BME280_humidity;BME280_pressure;Samples;Min_cycle;Max_cycle;Signal;HPM_P1;HPM_P2
2023/04/07 00:02:05;;;;;;;15.20;9.10;;;;;;;17.01;42.13;99994.00;107888;1257;74215;-66
2023/04/07 00:04:32;;;;;;;14.30;8.00;;;;;;;16.97;42.44;99995.29;107896;1257;71148;-66
2023/04/07 00:06:59;;;;;;;13.40;8.20;;;;;;;16.57;42.86;99994.01;107845;1257;73994;-67
2023/04/07 00:09:33;;;;;;;13.30;8.60;;;;;;;16.24;43.39;99996.97;107883;1257;60674;-67
2023/04/07 00:12:02;;;;;;;13.60;9.10;;;;;;;16.55;43.31;99998.89;107983;1256;61671;-66
2023/04/07 00:14:29;;;;;;;10.90;8.20;;;;;;;17.01;42.48;100003.21;107985;1256;74045;-66
2023/04/07 00:16:56;;;;;;;13.80;8.50;;;;;;;17.08;42.39;100001.73;107956;1257;71523;-67
2023/04/07 00:19:24;;;;;;;14.00;8.70;;;;;;;16.83;43.02;100000.67;107911;1257;73639;-66
2023/04/07 00:21:52;;;;;;;15.00;7.80;;;;;;;16.71;43.34;100006.71;107939;1258;60075;-67
2023/04/07 00:24:19;;;;;;;16.70;8.80;;;;;;;16.73;43.09;100012.49;107955;1256;61497;-66
2023/04/07 00:26:59;;;;;;;14.30;8.90;;;;;;;16.51;43.36;100009.92;107957;1256;73083;-66
2023/04/07 00:29:26;;;;;;;14.30;8.40;;;;;;;16.39;43.76;100014.46;107979;1256;71406;-66
2023/04/07 00:31:54;;;;;;;10.50;7.50;;;;;;;16.44;43.35;100016.45;107871;1257;74147;-65
2023/04/07 00:34:21;;;;;;;10.10;5.90;;;;;;;16.17;43.36;100021.84;107931;1256;61949;-65
2023/04/07 00:36:51;;;;;;;11.30;7.70;;;;;;;15.88;43.61;100023.60;107958;1256;60779;-65
2023/04/07 00:39:18;;;;;;;13.10;8.80;;;;;;;16.22;43.01;100024.38;107897;1256;73564;-66
2023/04/07 00:41:46;;;;;;;9.50;7.00;;;;;;;16.38;42.57;100022.67;107876;1256;70450;-65
2023/04/07 00:44:13;;;;;;;10.10;7.10;;;;;;;15.89;43.18;100026.73;107869;1258;73682;-65
2023/04/07 00:46:40;;;;;;;9.70;7.00;;;;;;;16.29;42.84;100022.32;108008;1257;61504;-65
2023/04/07 00:49:07;;;;;;;11.30;7.40;;;;;;;16.19;42.90;100026.30;107903;1257;61230;-66
2023/04/07 00:51:37;;;;;;;12.60;8.20;;;;;;;16.40;42.57;100027.67;107972;1257;73308;-66
2023/04/07 00:54:05;;;;;;;14.10;8.30;;;;;;;16.27;42.72;100033.25;107901;1257;70713;-66
2023/04/07 00:56:32;;;;;;;12.10;6.80;;;;;;;15.79;43.50;100040.59;107889;1257;72722;-62
2023/04/07 00:58:58;;;;;;;10.00;6.80;;;;;;;15.33;44.33;100038.31;107856;1257;61514;-66
2023/04/07 01:01:29;;;;;;;10.70;7.70;;;;;;;15.65;43.89;100042.80;107863;1257;60275;-66
2023/04/07 01:04:01;;;;;;;13.30;8.00;;;;;;;15.85;43.50;100038.14;107628;1256;73558;-67
2023/04/07 01:06:30;;;;;;;10.80;7.10;;;;;;;15.72;43.50;100043.49;107794;1256;70590;-65
2023/04/07 01:09:02;;;;;;;10.40;8.00;;;;;;;15.66;43.55;100041.70;107753;1262;72776;-64
2023/04/07 01:11:40;;;;;;;10.60;7.50;;;;;;;15.67;43.07;100046.95;107903;1257;61978;-66
2023/04/07 01:14:06;;;;;;;10.60;7.00;;;;;;;15.81;42.79;100047.58;107748;1257;61474;-67
2023/04/07 01:16:47;;;;;;;10.90;7.30;;;;;;;15.53;43.11;100050.09;107751;1257;72477;-66
2023/04/07 01:19:33;;;;;;;10.30;7.30;;;;;;;15.62;43.14;100049.91;107735;1257;70112;-66
2023/04/07 01:22:00;;;;;;;10.60;7.70;;;;;;;15.85;42.75;100051.42;107772;1257;73199;-66
2023/04/07 01:25:00;;;;;;;8.20;5.00;;;;;;;16.12;42.54;100055.27;107723;1263;60415;-66
2023/04/07 01:27:56;;;;;;;12.80;7.70;;;;;;;15.71;42.83;100059.33;107638;1257;61008;-66
2023/04/07 01:30:22;;;;;;;8.80;6.40;;;;;;;15.65;43.07;100063.88;107735;1257;73899;-65
2023/04/07 01:32:52;;;;;;;10.40;7.40;;;;;;;15.82;42.77;100062.77;107788;1257;71638;-66
2023/04/07 01:35:20;;;;;;;9.30;6.20;;;;;;;15.72;42.92;100070.41;107836;1257;73717;-66
2023/04/07 01:37:47;;;;;;;8.30;5.80;;;;;;;15.16;43.30;100063.17;107620;1257;62114;-66
2023/04/07 01:40:14;;;;;;;8.80;6.30;;;;;;;15.36;43.03;100067.38;107696;1257;61208;-66
2023/04/07 01:42:41;;;;;;;8.80;4.90;;;;;;;15.55;41.95;100074.39;107873;1256;74757;-66
2023/04/07 01:45:08;;;;;;;7.10;5.50;;;;;;;15.72;41.27;100076.57;107677;1257;71419;-66
2023/04/07 01:47:36;;;;;;;7.10;5.20;;;;;;;15.83;40.78;100076.65;107837;1256;72425;-66
2023/04/07 01:50:04;;;;;;;6.10;5.00;;;;;;;15.85;40.56;100083.45;107858;1256;61509;-67
2023/04/07 01:52:32;;;;;;;6.70;5.20;;;;;;;15.83;40.60;100078.25;107832;1257;61237;-66
2023/04/07 01:54:59;;;;;;;4.60;4.00;;;;;;;16.25;39.89;100076.23;107999;1257;74368;-65
2023/04/07 01:57:25;;;;;;;6.40;5.00;;;;;;;15.91;40.09;100083.27;107965;1258;68923;-64
2023/04/07 01:59:58;;;;;;;7.00;4.50;;;;;;;15.82;40.35;100085.03;108087;1254;73650;-65
2023/04/07 02:02:28;;;;;;;5.00;4.10;;;;;;;16.01;40.20;100088.48;107937;1254;61545;-65
2023/04/07 02:05:01;;;;;;;6.10;4.30;;;;;;;15.92;39.82;100086.94;107770;1253;61292;-65
2023/04/07 02:07:41;;;;;;;4.90;3.90;;;;;;;16.09;39.58;100087.67;107754;1254;74867;-65
2023/04/07 02:10:10;;;;;;;5.10;4.10;;;;;;;16.34;38.91;100089.15;107772;1261;71480;-67
2023/04/07 02:12:38;;;;;;;4.30;3.90;;;;;;;16.36;38.79;100092.61;107870;1254;72346;-65
2023/04/07 02:15:10;;;;;;;5.40;4.20;;;;;;;16.31;39.06;100087.07;107851;1254;61202;-65
2023/04/07 02:17:43;;;;;;;4.50;4.00;;;;;;;16.18;38.95;100090.12;107878;1254;60323;-61
2023/04/07 02:20:10;;;;;;;5.00;3.60;;;;;;;16.25;39.08;100086.91;108052;1254;75101;-66
2023/04/07 02:22:38;;;;;;;4.80;3.70;;;;;;;16.29;38.86;100088.57;108004;1254;69972;-66
2023/04/07 02:25:20;;;;;;;5.30;4.10;;;;;;;16.31;38.79;100088.80;108052;1254;73882;-66
2023/04/07 02:27:48;;;;;;;4.90;4.00;;;;;;;16.51;38.78;100096.80;108027;1254;61796;-66
2023/04/07 02:30:16;;;;;;;6.70;4.80;;;;;;;16.18;38.76;100096.30;108003;1254;59911;-66
2023/04/07 02:32:44;;;;;;;5.00;4.00;;;;;;;15.95;39.23;100097.20;107826;1254;74244;-66
2023/04/07 02:35:11;;;;;;;4.60;4.10;;;;;;;16.13;38.86;100099.83;107979;1254;70360;-66
2023/04/07 02:37:38;;;;;;;6.10;4.50;;;;;;;16.34;38.65;100097.14;108016;1254;72766;-67
2023/04/07 02:40:06;;;;;;;5.50;3.90;;;;;;;16.30;38.68;100101.27;108036;1253;61043;-66
2023/04/07 02:42:32;;;;;;;5.20;4.30;;;;;;;16.30;38.55;100097.02;108088;1252;60204;-65
2023/04/07 02:44:59;;;;;;;5.30;4.20;;;;;;;16.38;38.81;100099.55;107984;1253;73746;-67
2023/04/07 02:47:26;;;;;;;5.20;4.40;;;;;;;16.29;38.96;100101.84;108020;1254;69041;-67
2023/04/07 02:49:52;;;;;;;6.00;4.50;;;;;;;16.17;38.97;100105.25;108047;1253;72106;-65
2023/04/07 02:52:19;;;;;;;5.70;4.40;;;;;;;16.36;38.70;100100.94;107785;1253;62174;-66
2023/04/07 02:54:46;;;;;;;6.70;4.80;;;;;;;16.60;38.19;100104.71;108018;1253;60438;-66
2023/04/07 02:57:14;;;;;;;6.60;4.40;;;;;;;16.79;38.07;100102.86;108134;1254;73265;-66
2023/04/07 02:59:41;;;;;;;5.10;4.10;;;;;;;16.70;38.13;100104.12;108167;1253;71367;-66
2023/04/07 03:02:08;;;;;;;11.00;4.30;;;;;;;16.38;38.53;100110.20;108055;1257;71850;-66
2023/04/07 03:04:36;;;;;;;5.10;4.60;;;;;;;16.15;38.97;100109.29;108058;1258;60303;-66
2023/04/07 03:07:03;;;;;;;6.10;4.30;;;;;;;16.28;38.68;100114.70;107998;1254;60458;-65
2023/04/07 03:09:30;;;;;;;6.00;4.80;;;;;;;16.03;39.10;100119.18;108059;1253;73784;-67
2023/04/07 03:11:58;;;;;;;6.80;4.70;;;;;;;16.18;39.28;100122.92;108019;1254;69973;-67
2023/04/07 03:14:28;;;;;;;6.70;4.50;;;;;;;16.60;38.45;100123.86;108030;1254;73911;-70
2023/04/07 03:16:55;;;;;;;5.80;4.20;;;;;;;16.34;38.70;100126.91;108080;1253;60475;-64
2023/04/07 03:19:21;;;;;;;7.90;4.20;;;;;;;16.27;39.07;100130.30;108074;1253;60453;-64
2023/04/07 03:21:49;;;;;;;6.30;5.00;;;;;;;16.25;38.96;100133.64;108045;1254;73560;-64
2023/04/07 03:24:17;;;;;;;6.10;4.60;;;;;;;16.37;39.04;100138.02;108035;1253;69679;-66
2023/04/07 03:26:45;;;;;;;6.70;4.80;;;;;;;16.42;38.98;100135.59;108044;1253;72730;-67
2023/04/07 03:29:23;;;;;;;7.90;5.20;;;;;;;16.53;38.98;100140.61;108047;1253;61951;-66
2023/04/07 03:31:51;;;;;;;5.80;4.80;;;;;;;17.00;38.41;100142.14;108107;1253;60415;-66
2023/04/07 03:34:20;;;;;;;6.00;4.70;;;;;;;16.87;38.75;100145.98;108032;1253;73338;-67
2023/04/07 03:36:47;;;;;;;7.60;5.60;;;;;;;17.07;38.41;100142.23;108029;1253;70912;-66
2023/04/07 03:39:14;;;;;;;6.00;4.70;;;;;;;17.16;38.48;100145.59;108004;1253;71187;-66
2023/04/07 03:41:40;;;;;;;8.90;5.70;;;;;;;16.86;38.98;100150.83;108085;1253;61569;-66
2023/04/07 03:44:07;;;;;;;11.60;5.10;;;;;;;17.30;38.36;100152.86;108060;1253;60388;-65
2023/04/07 03:46:35;;;;;;;6.00;4.80;;;;;;;17.07;38.58;100153.59;108072;1253;74735;-67
2023/04/07 03:49:02;;;;;;;6.00;4.80;;;;;;;16.85;39.00;100154.25;108118;1253;70580;-66
2023/04/07 03:51:31;;;;;;;4.50;3.90;;;;;;;17.19;38.60;100156.89;107788;1253;72038;-66
2023/04/07 03:54:04;;;;;;;6.80;4.80;;;;;;;16.89;38.84;100163.06;108036;1253;61328;-65
2023/04/07 03:56:36;;;;;;;8.10;5.40;;;;;;;16.95;38.94;100167.66;108214;1254;60596;-66
2023/04/07 03:59:05;;;;;;;6.00;4.60;;;;;;;16.88;38.98;100166.82;108108;1253;73541;-66
2023/04/07 04:01:36;;;;;;;6.60;5.30;;;;;;;16.67;39.15;100176.95;108211;1252;71507;-68
2023/04/07 04:04:14;;;;;;;7.30;5.20;;;;;;;16.94;38.85;100177.85;108240;1252;73061;-67
2023/04/07 04:06:47;;;;;;;5.20;4.30;;;;;;;16.97;38.75;100183.66;108164;1253;61262;-66
2023/04/07 04:09:20;;;;;;;8.00;5.10;;;;;;;17.16;38.33;100189.21;108184;1253;60373;-65
2023/04/07 04:11:47;;;;;;;6.50;5.30;;;;;;;17.55;37.84;100188.34;108183;1253;74743;-64
2023/04/07 04:14:15;;;;;;;5.40;4.60;;;;;;;17.51;37.58;100190.70;108196;1253;71782;-66
2023/04/07 04:16:45;;;;;;;7.70;5.80;;;;;;;17.09;38.12;100196.75;108120;1253;73619;-67
2023/04/07 04:19:31;;;;;;;8.50;5.60;;;;;;;17.16;38.03;100198.75;108143;1253;62086;-67
2023/04/07 04:22:00;;;;;;;12.30;6.40;;;;;;;17.36;37.82;100197.54;108120;1252;60406;-67
2023/04/07 04:24:27;;;;;;;7.30;5.70;;;;;;;17.55;37.60;100198.06;108160;1253;74859;-67
2023/04/07 04:26:56;;;;;;;8.80;5.80;;;;;;;17.25;37.47;100204.04;108188;1253;70186;-67
2023/04/07 04:29:24;;;;;;;8.40;5.60;;;;;;;17.21;37.52;100205.42;108194;1253;73222;-67
2023/04/07 04:31:51;;;;;;;8.20;5.80;;;;;;;17.09;38.06;100204.05;108170;1253;62286;-66
2023/04/07 04:34:25;;;;;;;6.90;5.30;;;;;;;17.32;37.90;100208.04;108207;1253;60661;-66
2023/04/07 04:36:53;;;;;;;5.70;4.70;;;;;;;17.28;37.58;100210.80;108154;1253;73920;-67
2023/04/07 04:39:20;;;;;;;6.50;5.10;;;;;;;17.51;37.08;100212.89;108207;1252;69887;-66
2023/04/07 04:41:47;;;;;;;6.80;4.60;;;;;;;17.63;36.84;100216.53;108093;1253;73427;-66
2023/04/07 04:44:14;;;;;;;6.10;4.70;;;;;;;17.38;37.12;100219.94;108184;1252;60729;-67
2023/04/07 04:46:42;;;;;;;5.60;4.30;;;;;;;17.35;37.10;100222.75;108186;1253;60731;-67
2023/04/07 04:49:10;;;;;;;7.20;5.10;;;;;;;17.33;36.97;100223.27;108152;1253;75162;-66
2023/04/07 04:51:37;;;;;;;8.40;5.10;;;;;;;17.36;37.03;100225.38;108150;1253;69826;-67
2023/04/07 04:54:15;;;;;;;6.20;4.80;;;;;;;17.22;37.36;100226.98;108225;1252;71803;-67
2023/04/07 04:56:43;;;;;;;8.30;5.70;;;;;;;17.20;37.67;100231.36;108092;1253;60974;-67
2023/04/07 04:59:10;;;;;;;9.50;5.70;;;;;;;17.23;37.91;100232.58;108261;1252;60258;-66
2023/04/07 05:01:42;;;;;;;7.10;5.20;;;;;;;17.12;37.65;100238.93;108033;1253;73075;-67
2023/04/07 05:04:11;;;;;;;8.40;5.90;;;;;;;17.70;37.03;100238.63;108064;1253;71689;-67
2023/04/07 05:06:43;;;;;;;10.20;6.30;;;;;;;17.76;36.87;100235.77;108074;1253;72991;-67
2023/04/07 05:09:12;;;;;;;14.10;7.20;;;;;;;18.10;36.48;100239.79;108213;1253;61165;-67
2023/04/07 05:11:46;;;;;;;9.80;5.90;;;;;;;17.85;36.66;100244.09;108191;1252;61205;-67
2023/04/07 05:14:14;;;;;;;8.20;5.90;;;;;;;17.54;36.69;100251.57;108147;1253;74041;-67
2023/04/07 05:16:46;;;;;;;11.80;6.30;;;;;;;17.97;36.01;100253.07;108308;1253;70562;-67
2023/04/07 05:19:18;;;;;;;9.60;5.90;;;;;;;18.34;35.77;100258.07;108229;1252;71755;-63
2023/04/07 05:21:45;;;;;;;6.40;5.40;;;;;;;18.12;35.80;100262.38;108253;1253;60541;-67
2023/04/07 05:24:12;;;;;;;10.00;6.00;;;;;;;18.11;36.03;100268.49;108056;1258;60670;-66
2023/04/07 05:26:40;;;;;;;8.10;5.10;;;;;;;18.03;35.89;100273.98;108051;1258;74832;-68
2023/04/07 05:29:07;;;;;;;8.50;5.30;;;;;;;18.58;35.52;100274.61;108180;1254;71344;-65
2023/04/07 05:31:36;;;;;;;7.20;5.00;;;;;;;18.66;35.07;100279.73;108046;1252;73666;-66
2023/04/07 05:34:05;;;;;;;;;;;;;;;18.67;34.60;100286.41;108114;1258;60486;-66
2023/04/07 05:36:34;;;;;;;5.50;4.10;;;;;;;18.67;34.62;100289.63;108240;1252;61137;-67
2023/04/07 05:39:03;;;;;;;5.80;4.80;;;;;;;19.01;34.05;100291.41;108235;1253;74164;-67
2023/04/07 05:41:30;;;;;;;5.10;4.40;;;;;;;19.36;33.34;100292.64;108067;1253;71469;-67
2023/04/07 05:44:00;;;;;;;6.90;4.40;;;;;;;20.07;32.75;100287.95;108217;1252;73723;-67
2023/04/07 05:46:28;;;;;;;6.00;4.30;;;;;;;20.26;32.26;100292.55;108185;1253;63208;-67
2023/04/07 05:48:56;;;;;;;8.50;5.70;;;;;;;20.65;31.67;100289.99;108234;1253;60344;-67
2023/04/07 05:51:27;;;;;;;6.50;4.50;;;;;;;20.90;31.42;100291.88;108149;1255;73994;-67
2023/04/07 05:53:54;;;;;;;8.00;4.30;;;;;;;20.93;30.90;100293.23;108228;1252;70293;-65
2023/04/07 05:56:22;;;;;;;5.30;4.00;;;;;;;21.00;31.04;100294.61;108248;1253;74364;-66
2023/04/07 06:01:13;;;;;;;4.80;3.60;;;;;;;19.56;32.86;100300.79;105044;1291;613580;-90
2023/04/07 06:03:46;;;;;;;;;;;;;;;20.70;30.98;100301.98;107984;1257;60382;-92
2023/04/07 06:06:18;;;;;;;8.10;4.60;;;;;;;21.21;30.83;100306.54;107996;1257;60063;-93
2023/04/07 06:08:47;;;;;;;6.90;4.90;;;;;;;22.11;30.22;100307.57;108178;1257;71047;-93
2023/04/07 06:11:18;;;;;;;7.60;4.90;;;;;;;22.58;29.46;100306.17;107713;1257;70244;-94
2023/04/07 06:13:46;;;;;;;8.50;4.30;;;;;;;22.96;28.95;100308.38;107885;1256;177613;-91
2023/04/07 06:16:15;;;;;;;7.20;3.90;;;;;;;23.09;28.40;100311.38;107976;1256;60620;-92
2023/04/07 06:18:51;;;;;;;8.90;4.10;;;;;;;23.63;28.30;100312.52;107962;1256;61490;-93
2023/04/07 06:21:17;;;;;;;8.50;4.00;;;;;;;24.30;27.54;100308.66;108102;1256;72480;-93
2023/04/07 06:23:58;;;;;;;6.40;4.00;;;;;;;24.78;26.38;100315.92;107944;1256;71113;-93
2023/04/07 06:26:30;;;;;;;7.30;4.50;;;;;;;25.15;25.35;100318.33;108240;1255;72476;-94
2023/04/07 06:29:06;;;;;;;7.90;4.10;;;;;;;24.98;25.30;100313.86;108074;1256;61518;-93
2023/04/07 06:31:36;;;;;;;7.70;4.30;;;;;;;25.13;25.35;100320.91;108067;1256;60069;-94
2023/04/07 06:34:07;;;;;;;7.10;3.50;;;;;;;25.77;25.50;100322.13;108399;1254;73510;-92
2023/04/07 06:36:52;;;;;;;7.80;3.80;;;;;;;26.35;24.84;100324.30;108430;1254;70453;-93
2023/04/07 06:39:25;;;;;;;;;;;;;;;26.37;24.06;100325.15;108436;1254;72438;-93
2023/04/07 06:41:55;;;;;;;5.60;3.10;;;;;;;25.98;24.31;100332.42;108330;1254;60247;-92
2023/04/07 06:44:27;;;;;;;6.40;3.90;;;;;;;26.34;24.02;100331.02;108366;1254;61428;-93
2023/04/07 06:46:55;;;;;;;5.10;3.30;;;;;;;26.92;23.97;100324.81;108445;1253;72938;-93
2023/04/07 06:49:28;;;;;;;7.50;3.90;;;;;;;26.97;24.17;100328.84;108479;1253;71150;-92
2023/04/07 06:51:55;;;;;;;6.70;3.70;;;;;;;27.53;23.78;100330.38;108362;1253;73037;-92
2023/04/07 06:54:25;;;;;;;6.70;3.30;;;;;;;27.88;22.85;100330.30;109066;1252;61559;-92
2023/04/07 06:56:57;;;;;;;5.30;3.50;;;;;;;28.25;22.73;100333.17;109098;1252;60358;-90
2023/04/07 06:59:28;;;;;;;4.80;2.90;;;;;;;28.58;22.35;100333.27;108984;1252;74237;-93
2023/04/07 07:01:56;;;;;;;6.20;2.50;;;;;;;28.89;21.18;100331.86;108411;1251;70521;-94
2023/04/07 07:04:26;;;;;;;5.30;2.60;;;;;;;28.96;21.47;100339.32;108401;1251;72652;-91
2023/04/07 07:06:56;;;;;;;6.80;2.80;;;;;;;29.41;20.71;100338.69;109018;1251;60433;-92
2023/04/07 07:09:27;;;;;;;;;;;;;;;29.34;20.82;100335.50;109632;1251;58224;-92
2023/04/07 07:12:14;;;;;;;13.00;2.80;;;;;;;28.86;20.89;100330.36;109377;1251;71947;-92
2023/04/07 07:14:58;;;;;;;7.40;2.30;;;;;;;29.02;21.09;100332.59;109021;1255;71995;-94
2023/04/07 07:17:39;;;;;;;3.20;2.60;;;;;;;28.81;20.65;100334.89;109223;1251;71579;-91
2023/04/07 07:20:09;;;;;;;3.10;2.40;;;;;;;28.18;21.30;100338.64;109548;1251;60301;-92
2023/04/07 07:22:40;;;;;;;3.20;2.20;;;;;;;27.31;22.02;100341.02;109772;1251;58436;-91
2023/04/07 07:25:09;;;;;;;3.00;2.30;;;;;;;27.94;21.70;100341.05;109446;1253;72943;-91
2023/04/07 07:27:37;;;;;;;2.40;2.20;;;;;;;27.93;21.46;100339.60;109587;1251;70296;-95
2023/04/07 07:30:16;;;;;;;2.60;2.10;;;;;;;28.05;21.50;100340.79;109380;1251;73071;-93
2023/04/07 07:32:49;;;;;;;3.10;2.70;;;;;;;28.00;21.73;100338.63;109241;1251;60264;-92
2023/04/07 07:35:22;;;;;;;4.30;3.10;;;;;;;28.05;21.47;100340.61;108795;1251;61745;-94
2023/04/07 07:37:51;;;;;;;4.40;2.50;;;;;;;27.97;21.63;100343.77;108333;1251;74361;-94
2023/04/07 07:40:19;;;;;;;3.50;2.40;;;;;;;28.11;21.77;100343.81;108308;1251;70019;-94
2023/04/07 07:42:49;;;;;;;3.70;3.30;;;;;;;28.16;21.50;100348.60;108453;1251;73831;-94
2023/04/07 07:45:24;;;;;;;3.30;2.70;;;;;;;28.41;21.24;100349.56;108521;1251;59561;-94
2023/04/07 07:47:53;;;;;;;6.60;3.30;;;;;;;28.32;21.29;100350.52;108594;1251;60653;-94
2023/04/07 07:50:23;;;;;;;4.00;3.10;;;;;;;28.16;21.34;100353.70;108432;1251;72887;-94
2023/04/07 07:52:50;;;;;;;4.60;2.60;;;;;;;28.75;21.30;100353.20;108181;1251;71301;-93
2023/04/07 07:55:23;;;;;;;3.50;2.90;;;;;;;28.68;21.16;100351.70;108432;1253;73260;-93
2023/04/07 07:57:50;;;;;;;3.70;3.10;;;;;;;28.91;21.10;100356.42;109259;1251;61217;-94
2023/04/07 08:00:18;;;;;;;3.20;2.80;;;;;;;28.98;20.83;100356.64;109498;1252;59328;-94
2023/04/07 08:02:47;;;;;;;3.70;3.00;;;;;;;29.06;20.59;100359.05;109500;1252;71092;-93
2023/04/07 08:05:22;;;;;;;3.00;2.70;;;;;;;28.58;20.73;100358.48;109113;1252;68483;-94
2023/04/07 08:07:50;;;;;;;4.50;2.70;;;;;;;28.69;20.94;100355.70;108533;1252;72214;-93
2023/04/07 08:10:20;;;;;;;2.40;1.90;;;;;;;28.55;21.06;100358.17;109107;1252;60190;-91
2023/04/07 08:12:57;;;;;;;6.70;3.50;;;;;;;28.02;21.36;100363.54;108333;1253;61138;-94
2023/04/07 08:15:26;;;;;;;4.70;3.10;;;;;;;28.16;21.20;100361.85;108356;1253;72951;-93
2023/04/07 08:17:53;;;;;;;4.10;3.20;;;;;;;27.94;21.46;100363.33;108509;1253;70355;-94
2023/04/07 08:20:26;;;;;;;5.00;3.60;;;;;;;28.12;21.48;100364.56;108575;1252;74386;-92
2023/04/07 08:22:53;;;;;;;7.90;3.70;;;;;;;28.30;21.37;100360.88;108251;1252;61360;-92
2023/04/07 08:25:24;;;;;;;4.80;3.10;;;;;;;27.60;21.78;100363.41;108498;1252;60096;-95
2023/04/07 08:27:55;;;;;;;7.00;3.40;;;;;;;28.14;21.53;100356.48;108441;1252;73189;-95
2023/04/07 08:30:23;;;;;;;7.30;3.50;;;;;;;28.57;21.69;100355.78;108259;1253;71585;-94
2023/04/07 08:33:10;;;;;;;3.90;3.10;;;;;;;28.89;21.44;100354.12;108374;1255;72562;-93
2023/04/07 08:35:38;;;;;;;2.80;2.40;;;;;;;29.27;20.90;100356.77;108321;1258;60430;-93
2023/04/07 08:38:06;;;;;;;4.20;2.70;;;;;;;29.68;20.61;100356.41;108445;1253;61469;-93
2023/04/07 08:40:37;;;;;;;2.40;2.10;;;;;;;30.21;20.26;100360.95;108363;1253;73353;-92
2023/04/07 08:43:08;;;;;;;2.80;2.50;;;;;;;30.53;19.85;100359.68;108219;1253;70428;-93
2023/04/07 08:45:39;;;;;;;3.00;2.10;;;;;;;31.07;19.62;100356.63;108218;1253;73044;-95
2023/04/07 08:48:33;;;;;;;;;;;;;;;;;;;;;
2023/04/07 08:51:34;;;;;;;4.50;2.20;;;;;;;31.36;19.08;100355.52;108669;1252;59702;-94
2023/04/07 08:54:21;;;;;;;3.20;2.60;;;;;;;31.38;19.04;100358.19;108402;1253;73126;-93
2023/04/07 08:56:52;;;;;;;4.40;2.80;;;;;;;31.30;19.06;100358.48;108421;1252;71475;-93
2023/04/07 08:59:25;;;;;;;3.00;2.30;;;;;;;31.00;18.96;100359.67;108376;1253;71303;-94
2023/04/07 09:01:53;;;;;;;3.60;2.80;;;;;;;30.68;19.40;100363.91;108272;1253;59288;-93
2023/04/07 09:04:23;;;;;;;2.50;2.30;;;;;;;30.33;19.47;100364.92;108214;1253;61094;-91
2023/04/07 09:06:50;;;;;;;3.50;2.50;;;;;;;30.20;19.36;100365.63;108320;1253;71967;-93
2023/04/07 09:09:17;;;;;;;2.30;2.10;;;;;;;29.41;19.50;100364.92;108438;1252;71218;-93
2023/04/07 09:11:48;;;;;;;4.00;2.50;;;;;;;29.37;20.01;100365.14;108571;1253;72494;-93
2023/04/07 09:14:17;;;;;;;3.00;2.20;;;;;;;29.70;20.15;100366.14;108809;1253;60498;-93
2023/04/07 09:16:44;;;;;;;2.60;2.30;;;;;;;30.05;19.83;100364.64;108395;1258;60399;-93
2023/04/07 09:19:12;;;;;;;2.80;2.40;;;;;;;29.93;20.23;100359.95;108141;1257;74738;-94
2023/04/07 09:21:50;;;;;;;3.20;2.80;;;;;;;29.75;19.96;100361.62;108412;1251;71521;-93
2023/04/07 09:24:27;;;;;;;9.30;2.60;;;;;;;30.05;20.01;100361.02;108200;1253;73682;-94
2023/04/07 09:27:23;;;;;;;3.60;2.50;;;;;;;30.58;19.47;100362.54;108237;1253;60146;-94
2023/04/07 09:29:52;;;;;;;2.60;2.10;;;;;;;29.76;20.03;100362.05;108063;1253;61738;-91
2023/04/07 09:32:38;;;;;;;5.50;2.80;;;;;;;29.26;20.55;100362.06;108286;1253;72747;-93
2023/04/07 09:35:05;;;;;;;3.00;2.40;;;;;;;29.29;20.60;100362.33;108231;1257;69016;-92
2023/04/07 09:37:33;;;;;;;3.00;2.20;;;;;;;29.33;20.47;100362.96;108315;1256;74383;-94
2023/04/07 09:40:01;;;;;;;3.90;2.60;;;;;;;29.79;20.47;100364.18;108259;1253;59765;-94
2023/04/07 09:42:33;;;;;;;2.70;2.40;;;;;;;30.10;19.89;100365.38;108316;1253;59552;-94
2023/04/07 09:45:00;;;;;;;3.30;2.40;;;;;;;30.31;19.92;100362.71;109318;1258;72864;-92
2023/04/07 09:47:29;;;;;;;2.60;2.20;;;;;;;30.39;19.76;100360.70;109596;1251;70927;-90
2023/04/07 09:49:57;;;;;;;2.80;2.40;;;;;;;30.58;19.66;100366.09;109338;1253;72717;-91
2023/04/07 09:52:53;;;;;;;2.60;2.20;;;;;;;30.67;19.56;100365.96;109474;1251;60412;-92
2023/04/07 09:55:30;;;;;;;3.10;2.40;;;;;;;31.08;19.54;100355.42;109589;1252;60959;-93
2023/04/07 09:57:58;;;;;;;2.80;2.30;;;;;;;31.63;19.01;100356.79;109661;1255;72996;-92
2023/04/07 10:00:26;;;;;;;6.20;2.80;;;;;;;32.17;18.66;100357.65;109491;1252;69851;-91
2023/04/07 10:03:04;;;;;;;4.50;3.10;;;;;;;32.26;18.72;100356.22;109595;1253;72664;-93
2023/04/07 10:05:31;;;;;;;6.80;2.40;;;;;;;32.12;18.56;100362.05;109473;1253;59480;-90
2023/04/07 10:08:01;;;;;;;8.80;2.90;;;;;;;32.46;18.74;100357.58;109542;1253;60213;-92
2023/04/07 10:10:30;;;;;;;5.50;3.00;;;;;;;33.21;18.55;100357.48;109433;1252;73839;-92
2023/04/07 10:12:58;;;;;;;4.00;2.60;;;;;;;33.36;18.21;100361.02;109229;1253;70349;-92
2023/04/07 10:15:26;;;;;;;5.20;3.80;;;;;;;33.22;17.62;100363.14;108930;1253;72768;-93
2023/04/07 10:17:56;;;;;;;12.20;3.80;;;;;;;33.11;17.67;100361.84;108265;1253;60318;-92
2023/04/07 10:20:27;;;;;;;6.30;3.20;;;;;;;32.59;18.29;100365.99;108265;1258;59930;-92
2023/04/07 10:22:54;;;;;;;;;;;;;;;32.00;18.91;100369.12;108361;1253;73779;-93
2023/04/07 10:25:22;;;;;;;6.80;3.70;;;;;;;32.27;19.05;100369.02;108208;1253;71292;-93
2023/04/07 10:28:02;;;;;;;6.00;3.00;;;;;;;32.37;18.70;100370.17;108154;1253;73189;-93
2023/04/07 10:30:33;;;;;;;4.50;2.80;;;;;;;32.32;19.18;100370.48;108193;1253;61438;-93
2023/04/07 10:33:45;;;;;;;2.80;2.40;;;;;;;31.90;19.06;100375.30;108359;1253;62991;-92
2023/04/07 10:36:15;;;;;;;3.10;2.20;;;;;;;31.63;19.43;100370.01;108476;1252;74280;-92
2023/04/07 10:39:06;;;;;;;4.20;2.70;;;;;;;31.37;19.83;100375.00;108426;1253;68690;-93
2023/04/07 10:41:40;;;;;;;7.90;2.70;;;;;;;31.05;19.58;100377.92;108242;1253;72986;-94
2023/04/07 10:44:15;;;;;;;4.70;3.40;;;;;;;30.39;20.06;100378.83;108343;1253;60467;-93
2023/04/07 10:46:48;;;;;;;5.90;3.10;;;;;;;30.10;20.52;100378.40;108289;1253;60251;-93
2023/04/07 10:49:16;;;;;;;6.10;3.50;;;;;;;29.92;20.69;100376.87;108420;1253;72359;-93
2023/04/07 10:52:16;;;;;;;3.80;3.00;;;;;;;30.04;20.72;100376.90;108029;1252;70949;-94
2023/04/07 10:54:46;;;;;;;4.40;3.10;;;;;;;29.67;20.90;100376.60;108357;1251;73494;-94
2023/04/07 10:57:14;;;;;;;4.60;3.30;;;;;;;28.95;21.64;100376.73;108206;1253;61407;-93
2023/04/07 11:00:10;;;;;;;6.60;3.90;;;;;;;28.59;21.81;100376.35;108163;1251;61216;-92
2023/04/07 11:02:38;;;;;;;4.50;3.30;;;;;;;28.33;22.61;100376.63;108311;1251;74548;-92
2023/04/07 11:05:07;;;;;;;4.70;2.80;;;;;;;28.34;22.15;100377.00;108887;1251;68761;-92
2023/04/07 11:07:49;;;;;;;7.10;3.80;;;;;;;28.15;22.37;100376.16;109393;1251;71493;-93
2023/04/07 11:10:22;;;;;;;6.60;3.50;;;;;;;27.92;22.62;100376.27;109509;1251;61491;-92
2023/04/07 11:13:17;;;;;;;5.60;3.60;;;;;;;27.93;22.70;100377.86;109474;1251;58672;-92
2023/04/07 11:15:44;;;;;;;7.00;3.00;;;;;;;28.25;21.85;100372.40;109738;1251;72983;-92
2023/04/07 11:18:18;;;;;;;4.50;3.10;;;;;;;28.38;22.08;100370.89;109590;1251;69837;-93
2023/04/07 11:20:57;;;;;;;3.70;2.70;;;;;;;29.14;21.28;100370.40;109967;1251;72590;-93
2023/04/07 11:23:42;;;;;;;6.80;2.90;;;;;;;29.68;20.93;100368.77;109610;1251;59406;-91
2023/04/07 11:26:12;;;;;;;4.40;3.50;;;;;;;30.00;20.60;100370.16;109773;1251;60327;-93
2023/04/07 11:28:50;;;;;;;28.40;3.40;;;;;;;30.30;20.38;100363.61;109662;1251;74129;-93
2023/04/07 11:31:30;;;;;;;4.20;3.00;;;;;;;30.35;20.39;100362.15;109718;1251;69884;-94
2023/04/07 11:34:00;;;;;;;6.20;3.70;;;;;;;30.37;20.01;100361.55;108982;1251;72692;-91
2023/04/07 11:36:32;;;;;;;5.20;3.20;;;;;;;30.41;20.11;100361.78;108509;1251;60959;-93
2023/04/07 11:39:19;;;;;;;4.80;3.30;;;;;;;30.18;20.31;100364.08;108551;1251;60515;-94
2023/04/07 11:41:48;;;;;;;4.00;2.80;;;;;;;30.75;20.22;100362.98;108322;1253;73884;-90